sensor_id;sensor_type;location;lat;lon;timestamp;pressure;altitude;pressure_sealevel;temperature;humidity
49801;BME280;35698;50.232;30.540;2023-05-10T00:07:40;101340.13;;;9.63;46.19
49801;BME280;35698;50.232;30.540;2023-05-10T00:19:43;101333.81;;;9.44;47.11
49801;BME280;35698;50.232;30.540;2023-05-10T00:20:46;101335.64;;;9.42;46.72
49801;BME280;35698;50.232;30.540;2023-05-10T00:21:59;101339.73;;;9.50;46.76
49801;BME280;35698;50.232;30.540;2023-05-10T00:23:02;101332.05;;;9.44;46.47
49801;BME280;35698;50.232;30.540;2023-05-10T00:24:12;101332.09;;;9.43;46.56
49801;BME280;35698;50.232;30.540;2023-05-10T00:25:33;101331.18;;;9.44;46.54
49801;BME280;35698;50.232;30.540;2023-05-10T00:26:36;101331.34;;;9.39;46.47
49801;BME280;35698;50.232;30.540;2023-05-10T00:27:40;101329.94;;;9.29;46.97
49801;BME280;35698;50.232;30.540;2023-05-10T00:29:13;101337.97;;;9.51;46.83
49801;BME280;35698;50.232;30.540;2023-05-10T00:30:16;101331.18;;;9.44;46.70
49801;BME280;35698;50.232;30.540;2023-05-10T00:42:18;101333.22;;;9.84;46.20
49801;BME280;35698;50.232;30.540;2023-05-10T00:43:29;101323.12;;;9.95;46.00
49801;BME280;35698;50.232;30.540;2023-05-10T00:44:32;101323.75;;;9.78;46.09
49801;BME280;35698;50.232;30.540;2023-05-10T00:45:36;101329.94;;;9.77;46.31
49801;BME280;35698;50.232;30.540;2023-05-10T00:46:49;101322.83;;;9.79;46.37
49801;BME280;35698;50.232;30.540;2023-05-10T00:47:53;101328.28;;;9.75;46.25
49801;BME280;35698;50.232;30.540;2023-05-10T00:48:56;101329.03;;;9.78;46.18
49801;BME280;35698;50.232;30.540;2023-05-10T00:50:17;101328.63;;;9.89;46.17
49801;BME280;35698;50.232;30.540;2023-05-10T00:51:21;101324.61;;;9.79;46.28
49801;BME280;35698;50.232;30.540;2023-05-10T00:52:36;101326.16;;;9.84;46.40
49801;BME280;35698;50.232;30.540;2023-05-10T00:53:40;101324.72;;;9.76;46.35
49801;BME280;35698;50.232;30.540;2023-05-10T00:54:54;101330.63;;;9.82;46.57
49801;BME280;35698;50.232;30.540;2023-05-10T00:55:59;101321.97;;;9.79;46.36
49801;BME280;35698;50.232;30.540;2023-05-10T00:57:21;101330.23;;;9.93;46.20
49801;BME280;35698;50.232;30.540;2023-05-10T00:58:45;101320.95;;;10.30;45.87
49801;BME280;35698;50.232;30.540;2023-05-10T00:59:48;101324.45;;;10.07;45.86
49801;BME280;35698;50.232;30.540;2023-05-10T01:01:10;101320.95;;;10.06;45.95
49801;BME280;35698;50.232;30.540;2023-05-10T01:02:29;101322.61;;;10.09;46.29
49801;BME280;35698;50.232;30.540;2023-05-10T01:03:33;101319.05;;;9.86;46.46
49801;BME280;35698;50.232;30.540;2023-05-10T01:04:55;101325.70;;;9.97;46.86
49801;BME280;35698;50.232;30.540;2023-05-10T01:06:08;101327.10;;;10.30;46.08
49801;BME280;35698;50.232;30.540;2023-05-10T01:07:12;101325.67;;;10.22;45.94
49801;BME280;35698;50.232;30.540;2023-05-10T01:08:33;101330.41;;;10.12;46.14
49801;BME280;35698;50.232;30.540;2023-05-10T01:09:45;101320.77;;;10.11;46.55
49801;BME280;35698;50.232;30.540;2023-05-10T01:10:49;101323.47;;;9.86;46.70
49801;BME280;35698;50.232;30.540;2023-05-10T01:12:11;101332.44;;;9.57;47.62
49801;BME280;35698;50.232;30.540;2023-05-10T01:13:18;101330.75;;;9.79;47.11
49801;BME280;35698;50.232;30.540;2023-05-10T01:14:46;101329.38;;;9.93;46.93
49801;BME280;35698;50.232;30.540;2023-05-10T01:15:50;101327.94;;;9.84;47.22
49801;BME280;35698;50.232;30.540;2023-05-10T01:17:12;101332.83;;;9.95;47.08
49801;BME280;35698;50.232;30.540;2023-05-10T01:18:17;101329.66;;;9.85;47.12
49801;BME280;35698;50.232;30.540;2023-05-10T01:19:35;101329.49;;;10.13;47.00
49801;BME280;35698;50.232;30.540;2023-05-10T01:20:40;101338.10;;;9.95;47.08
49801;BME280;35698;50.232;30.540;2023-05-10T01:36:32;101318.30;;;10.06;47.92
49801;BME280;35698;50.232;30.540;2023-05-10T01:37:50;101319.69;;;9.93;47.88
49801;BME280;35698;50.232;30.540;2023-05-10T01:42:10;101323.02;;;9.98;47.73
49801;BME280;35698;50.232;30.540;2023-05-10T01:46:20;101327.66;;;9.92;48.26
49801;BME280;35698;50.232;30.540;2023-05-10T01:47:37;101322.17;;;10.21;47.75
49801;BME280;35698;50.232;30.540;2023-05-10T01:50:03;101317.28;;;10.34;47.69
49801;BME280;35698;50.232;30.540;2023-05-10T01:52:36;101314.94;;;10.26;47.68
49801;BME280;35698;50.232;30.540;2023-05-10T01:54:00;101319.06;;;10.33;47.47
49801;BME280;35698;50.232;30.540;2023-05-10T01:55:16;101310.69;;;10.44;47.41
49801;BME280;35698;50.232;30.540;2023-05-10T01:56:23;101323.54;;;10.31;47.35
49801;BME280;35698;50.232;30.540;2023-05-10T01:57:33;101313.84;;;10.32;47.27
49801;BME280;35698;50.232;30.540;2023-05-10T01:58:56;101312.12;;;10.31;47.36
49801;BME280;35698;50.232;30.540;2023-05-10T02:00:13;101314.58;;;10.35;47.37
49801;BME280;35698;50.232;30.540;2023-05-10T02:01:20;101312.67;;;10.15;47.90
49801;BME280;35698;50.232;30.540;2023-05-10T02:02:25;101317.75;;;10.22;47.62
49801;BME280;35698;50.232;30.540;2023-05-10T02:03:50;101315.00;;;10.25;47.45
49801;BME280;35698;50.232;30.540;2023-05-10T02:05:09;101319.59;;;10.41;47.33
49801;BME280;35698;50.232;30.540;2023-05-10T02:06:14;101321.31;;;10.42;47.27
49801;BME280;35698;50.232;30.540;2023-05-10T02:07:20;101315.37;;;10.37;47.24
49801;BME280;35698;50.232;30.540;2023-05-10T02:08:43;101316.23;;;10.38;47.30
49801;BME280;35698;50.232;30.540;2023-05-10T02:10:02;101306.02;;;10.72;47.10
49801;BME280;35698;50.232;30.540;2023-05-10T02:11:07;101309.70;;;10.68;47.01
49801;BME280;35698;50.232;30.540;2023-05-10T02:12:14;101307.92;;;10.69;46.90
49801;BME280;35698;50.232;30.540;2023-05-10T02:13:37;101308.66;;;10.72;46.79
49801;BME280;35698;50.232;30.540;2023-05-10T02:14:59;101304.78;;;10.81;46.98
49801;BME280;35698;50.232;30.540;2023-05-10T02:16:05;101308.66;;;10.72;47.02
49801;BME280;35698;50.232;30.540;2023-05-10T02:17:09;101310.19;;;10.78;46.99
49801;BME280;35698;50.232;30.540;2023-05-10T02:18:13;101310.86;;;10.83;46.89
49801;BME280;35698;50.232;30.540;2023-05-10T02:19:28;101304.14;;;10.96;46.96
49801;BME280;35698;50.232;30.540;2023-05-10T02:20:34;101307.52;;;11.00;46.79
49801;BME280;35698;50.232;30.540;2023-05-10T02:21:50;101316.59;;;11.14;46.78
49801;BME280;35698;50.232;30.540;2023-05-10T02:22:55;101318.56;;;11.09;46.88
49801;BME280;35698;50.232;30.540;2023-05-10T02:24:01;101314.94;;;11.12;47.05
49801;BME280;35698;50.232;30.540;2023-05-10T02:25:18;101316.03;;;11.27;46.93
49801;BME280;35698;50.232;30.540;2023-05-10T02:26:23;101311.11;;;11.19;46.90
49801;BME280;35698;50.232;30.540;2023-05-10T02:27:38;101308.76;;;11.32;46.91
49801;BME280;35698;50.232;30.540;2023-05-10T02:28:43;101315.27;;;11.25;46.82
49801;BME280;35698;50.232;30.540;2023-05-10T02:29:46;101314.34;;;11.26;46.87
49801;BME280;35698;50.232;30.540;2023-05-10T02:30:59;101316.23;;;11.42;46.81
49801;BME280;35698;50.232;30.540;2023-05-10T02:32:03;101318.28;;;11.36;46.59
49801;BME280;35698;50.232;30.540;2023-05-10T02:33:27;101313.91;;;11.55;46.44
49801;BME280;35698;50.232;30.540;2023-05-10T02:34:31;101314.25;;;11.47;46.43
49801;BME280;35698;50.232;30.540;2023-05-10T02:35:37;101323.89;;;11.69;46.20
49801;BME280;35698;50.232;30.540;2023-05-10T02:36:41;101312.84;;;11.59;46.24
49801;BME280;35698;50.232;30.540;2023-05-10T02:37:46;101317.22;;;11.60;46.19
49801;BME280;35698;50.232;30.540;2023-05-10T02:39:05;101320.38;;;11.68;46.31
49801;BME280;35698;50.232;30.540;2023-05-10T02:40:10;101316.55;;;11.55;46.34
49801;BME280;35698;50.232;30.540;2023-05-10T02:41:14;101320.12;;;11.54;46.36
49801;BME280;35698;50.232;30.540;2023-05-10T02:42:32;101317.41;;;11.56;46.74
49801;BME280;35698;50.232;30.540;2023-05-10T02:43:37;101315.23;;;11.45;46.75
49801;BME280;35698;50.232;30.540;2023-05-10T02:45:03;101312.98;;;11.56;46.95
49801;BME280;35698;50.232;30.540;2023-05-10T02:46:07;101308.55;;;11.57;46.76
49801;BME280;35698;50.232;30.540;2023-05-10T02:47:11;101318.55;;;11.50;46.62
49801;BME280;35698;50.232;30.540;2023-05-10T02:48:15;101317.48;;;11.54;46.52
49801;BME280;35698;50.232;30.540;2023-05-10T02:49:29;101304.43;;;11.70;46.59
49801;BME280;35698;50.232;30.540;2023-05-10T02:50:33;101313.64;;;11.61;46.41
49801;BME280;35698;50.232;30.540;2023-05-10T02:51:41;101305.56;;;11.64;46.42
49801;BME280;35698;50.232;30.540;2023-05-10T02:52:59;101315.42;;;11.81;46.47
49801;BME280;35698;50.232;30.540;2023-05-10T02:54:18;101301.47;;;11.77;46.08
49801;BME280;35698;50.232;30.540;2023-05-10T02:55:25;101304.91;;;11.79;45.98
49801;BME280;35698;50.232;30.540;2023-05-10T02:56:34;101305.63;;;11.83;46.06
49801;BME280;35698;50.232;30.540;2023-05-10T02:57:41;101315.22;;;11.86;46.13
49801;BME280;35698;50.232;30.540;2023-05-10T02:58:55;101315.08;;;11.89;45.90
49801;BME280;35698;50.232;30.540;2023-05-10T02:59:58;101311.13;;;11.78;46.00
49801;BME280;35698;50.232;30.540;2023-05-10T03:01:02;101318.73;;;11.86;46.05
49801;BME280;35698;50.232;30.540;2023-05-10T03:02:21;101314.80;;;11.95;45.62
49801;BME280;35698;50.232;30.540;2023-05-10T03:03:24;101320.89;;;11.97;46.08
49801;BME280;35698;50.232;30.540;2023-05-10T03:15:19;101316.55;;;12.51;45.79
49801;BME280;35698;50.232;30.540;2023-05-10T03:16:47;101319.99;;;12.53;45.47
49801;BME280;35698;50.232;30.540;2023-05-10T03:18:28;101309.31;;;12.54;45.45
49801;BME280;35698;50.232;30.540;2023-05-10T03:19:34;101313.70;;;12.36;45.62
49801;BME280;35698;50.232;30.540;2023-05-10T03:20:57;101310.98;;;12.19;46.09
49801;BME280;35698;50.232;30.540;2023-05-10T03:22:08;101317.22;;;12.18;46.24
49801;BME280;35698;50.232;30.540;2023-05-10T03:23:43;101323.22;;;12.40;45.85
49801;BME280;35698;50.232;30.540;2023-05-10T03:24:47;101327.81;;;12.37;45.66
49801;BME280;35698;50.232;30.540;2023-05-10T03:27:28;101320.48;;;12.61;46.15
49801;BME280;35698;50.232;30.540;2023-05-10T03:28:34;101322.56;;;12.54;46.03
49801;BME280;35698;50.232;30.540;2023-05-10T03:31:19;101322.34;;;12.59;46.05
49801;BME280;35698;50.232;30.540;2023-05-10T03:32:33;101318.02;;;12.75;46.04
49801;BME280;35698;50.232;30.540;2023-05-10T03:33:48;101317.75;;;12.62;45.89
49801;BME280;35698;50.232;30.540;2023-05-10T03:35:10;101323.47;;;12.72;45.87
49801;BME280;35698;50.232;30.540;2023-05-10T03:36:13;101317.12;;;12.57;45.90
49801;BME280;35698;50.232;30.540;2023-05-10T03:37:17;101314.32;;;12.60;45.76
49801;BME280;35698;50.232;30.540;2023-05-10T03:49:20;101331.24;;;13.45;45.11
49801;BME280;35698;50.232;30.540;2023-05-10T03:50:24;101330.70;;;13.39;45.02
49801;BME280;35698;50.232;30.540;2023-05-10T03:51:44;101332.48;;;13.56;44.91
49801;BME280;35698;50.232;30.540;2023-05-10T03:52:48;101330.62;;;13.40;44.93
49801;BME280;35698;50.232;30.540;2023-05-10T03:53:56;101329.77;;;13.40;45.02
49801;BME280;35698;50.232;30.540;2023-05-10T03:55:10;101328.19;;;13.53;44.98
49801;BME280;35698;50.232;30.540;2023-05-10T03:56:14;101333.52;;;13.36;45.00
49801;BME280;35698;50.232;30.540;2023-05-10T03:57:26;101336.63;;;13.44;45.15
49801;BME280;35698;50.232;30.540;2023-05-10T03:58:29;101333.36;;;13.39;45.07
49801;BME280;35698;50.232;30.540;2023-05-10T03:59:33;101337.17;;;13.51;44.94
49801;BME280;35698;50.232;30.540;2023-05-10T04:00:36;101333.42;;;13.55;44.84
49801;BME280;35698;50.232;30.540;2023-05-10T04:01:48;101329.64;;;13.76;44.73
49801;BME280;35698;50.232;30.540;2023-05-10T04:02:52;101330.98;;;13.67;44.67
49801;BME280;35698;50.232;30.540;2023-05-10T04:03:55;101330.05;;;13.68;44.63
49801;BME280;35698;50.232;30.540;2023-05-10T04:04:59;101331.44;;;13.75;43.92
49801;BME280;35698;50.232;30.540;2023-05-10T04:06:20;101327.92;;;13.75;43.90
49801;BME280;35698;50.232;30.540;2023-05-10T04:07:24;101329.56;;;13.93;43.56
49801;BME280;35698;50.232;30.540;2023-05-10T04:08:44;101324.64;;;14.19;42.96
49801;BME280;35698;50.232;30.540;2023-05-10T04:09:47;101327.71;;;14.11;42.97
49801;BME280;35698;50.232;30.540;2023-05-10T04:11:11;101326.62;;;14.31;42.35
49801;BME280;35698;50.232;30.540;2023-05-10T04:12:14;101330.47;;;14.25;42.53
49801;BME280;35698;50.232;30.540;2023-05-10T04:13:33;101326.83;;;14.43;42.13
49801;BME280;35698;50.232;30.540;2023-05-10T04:14:36;101327.14;;;14.37;42.28
49801;BME280;35698;50.232;30.540;2023-05-10T04:15:57;101332.83;;;14.47;42.33
49801;BME280;35698;50.232;30.540;2023-05-10T04:17:01;101330.94;;;14.49;42.12
49801;BME280;35698;50.232;30.540;2023-05-10T04:18:22;101334.89;;;14.58;42.04
49801;BME280;35698;50.232;30.540;2023-05-10T04:19:30;101331.53;;;14.70;41.73
49801;BME280;35698;50.232;30.540;2023-05-10T04:20:34;101332.60;;;14.82;41.71
49801;BME280;35698;50.232;30.540;2023-05-10T04:21:37;101333.02;;;14.90;41.63
49801;BME280;35698;50.232;30.540;2023-05-10T04:22:51;101333.03;;;15.20;41.28
49801;BME280;35698;50.232;30.540;2023-05-10T04:23:55;101333.22;;;15.17;40.96
49801;BME280;35698;50.232;30.540;2023-05-10T04:25:16;101330.95;;;15.25;40.87
49801;BME280;35698;50.232;30.540;2023-05-10T04:26:19;101329.73;;;15.30;40.68
49801;BME280;35698;50.232;30.540;2023-05-10T04:27:41;101332.22;;;15.33;39.67
49801;BME280;35698;50.232;30.540;2023-05-10T04:28:56;101322.84;;;15.56;39.18
49801;BME280;35698;50.232;30.540;2023-05-10T04:29:59;101327.38;;;15.40;39.08
49801;BME280;35698;50.232;30.540;2023-05-10T04:31:20;101325.30;;;15.45;38.46
49801;BME280;35698;50.232;30.540;2023-05-10T04:32:39;101326.01;;;15.77;38.68
49801;BME280;35698;50.232;30.540;2023-05-10T04:33:42;101318.11;;;15.76;38.11
49801;BME280;35698;50.232;30.540;2023-05-10T04:35:03;101325.44;;;15.86;38.14
49801;BME280;35698;50.232;30.540;2023-05-10T04:36:20;101328.67;;;15.77;36.06
49801;BME280;35698;50.232;30.540;2023-05-10T04:37:23;101323.53;;;15.74;36.75
49801;BME280;35698;50.232;30.540;2023-05-10T04:38:45;101317.83;;;15.80;37.17
49801;BME280;35698;50.232;30.540;2023-05-10T04:39:48;101322.30;;;15.94;37.59
49801;BME280;35698;50.232;30.540;2023-05-10T04:41:10;101317.70;;;16.24;37.29
49801;BME280;35698;50.232;30.540;2023-05-10T04:42:13;101323.23;;;16.21;37.44
49801;BME280;35698;50.232;30.540;2023-05-10T04:43:20;101321.23;;;16.25;37.04
49801;BME280;35698;50.232;30.540;2023-05-10T04:44:23;101328.17;;;16.27;36.79
49801;BME280;35698;50.232;30.540;2023-05-10T04:45:35;101323.59;;;16.29;36.84
49801;BME280;35698;50.232;30.540;2023-05-10T04:46:57;101326.95;;;16.19;36.91
49801;BME280;35698;50.232;30.540;2023-05-10T04:48:10;101321.40;;;16.36;36.16
49801;BME280;35698;50.232;30.540;2023-05-10T04:49:15;101326.73;;;16.36;36.15
49801;BME280;35698;50.232;30.540;2023-05-10T04:50:29;101317.22;;;16.59;36.48
49801;BME280;35698;50.232;30.540;2023-05-10T04:51:32;101326.37;;;16.55;36.49
49801;BME280;35698;50.232;30.540;2023-05-10T04:52:37;101317.11;;;16.60;36.36
49801;BME280;35698;50.232;30.540;2023-05-10T04:56:18;101320.73;;;16.74;35.85
49801;BME280;35698;50.232;30.540;2023-05-10T04:57:43;101319.91;;;16.86;35.96
49801;BME280;35698;50.232;30.540;2023-05-10T04:59:56;101320.91;;;16.97;35.89
49801;BME280;35698;50.232;30.540;2023-05-10T05:01:04;101312.56;;;16.89;36.08
49801;BME280;35698;50.232;30.540;2023-05-10T05:02:17;101327.14;;;17.11;35.38
49801;BME280;35698;50.232;30.540;2023-05-10T05:03:39;101321.32;;;16.91;35.30
49801;BME280;35698;50.232;30.540;2023-05-10T05:04:42;101322.28;;;16.90;35.74
49801;BME280;35698;50.232;30.540;2023-05-10T05:05:59;101324.78;;;17.06;36.00
49801;BME280;35698;50.232;30.540;2023-05-10T05:07:02;101323.17;;;17.03;36.05
49801;BME280;35698;50.232;30.540;2023-05-10T05:08:14;101320.98;;;17.23;35.89
49801;BME280;35698;50.232;30.540;2023-05-10T05:09:17;101320.88;;;17.24;36.14
49801;BME280;35698;50.232;30.540;2023-05-10T05:10:38;101328.47;;;17.30;36.00
49801;BME280;35698;50.232;30.540;2023-05-10T05:12:04;101319.81;;;17.52;35.42
49801;BME280;35698;50.232;30.540;2023-05-10T05:13:07;101329.42;;;17.42;35.59
49801;BME280;35698;50.232;30.540;2023-05-10T05:14:28;101323.86;;;17.45;35.15
49801;BME280;35698;50.232;30.540;2023-05-10T05:15:40;101327.41;;;17.58;35.01
49801;BME280;35698;50.232;30.540;2023-05-10T05:16:43;101320.88;;;17.50;34.92
49801;BME280;35698;50.232;30.540;2023-05-10T05:18:04;101323.44;;;17.51;34.66
49801;BME280;35698;50.232;30.540;2023-05-10T05:19:17;101320.49;;;17.68;34.60
49801;BME280;35698;50.232;30.540;2023-05-10T05:20:20;101323.02;;;17.57;34.47
49801;BME280;35698;50.232;30.540;2023-05-10T05:21:42;101325.37;;;17.62;34.04
49801;BME280;35698;50.232;30.540;2023-05-10T05:23:05;101320.59;;;17.67;33.94
49801;BME280;35698;50.232;30.540;2023-05-10T05:24:23;101322.30;;;17.81;33.77
49801;BME280;35698;50.232;30.540;2023-05-10T05:25:26;101318.23;;;17.88;33.82
49801;BME280;35698;50.232;30.540;2023-05-10T05:26:48;101325.17;;;18.03;33.86
49801;BME280;35698;50.232;30.540;2023-05-10T05:28:10;101323.88;;;18.09;33.49
49801;BME280;35698;50.232;30.540;2023-05-10T05:29:33;101317.38;;;18.00;33.55
49801;BME280;35698;50.232;30.540;2023-05-10T05:30:49;101323.33;;;18.16;33.41
49801;BME280;35698;50.232;30.540;2023-05-10T05:31:52;101319.17;;;18.12;33.74
49801;BME280;35698;50.232;30.540;2023-05-10T05:33:14;101310.52;;;18.09;33.75
49801;BME280;35698;50.232;30.540;2023-05-10T05:34:35;101311.67;;;18.17;33.81
49801;BME280;35698;50.232;30.540;2023-05-10T05:35:49;101316.70;;;18.46;32.77
49801;BME280;35698;50.232;30.540;2023-05-10T05:36:52;101319.30;;;18.34;32.33
49801;BME280;35698;50.232;30.540;2023-05-10T05:38:12;101316.25;;;18.52;32.63
49801;BME280;35698;50.232;30.540;2023-05-10T05:39:15;101320.45;;;18.43;32.69
49801;BME280;35698;50.232;30.540;2023-05-10T05:40:27;101310.03;;;18.64;32.33
49801;BME280;35698;50.232;30.540;2023-05-10T05:41:30;101311.42;;;18.57;31.93
49801;BME280;35698;50.232;30.540;2023-05-10T05:42:41;101313.97;;;18.71;32.30
49801;BME280;35698;50.232;30.540;2023-05-10T05:43:44;101307.87;;;18.69;31.95
49801;BME280;35698;50.232;30.540;2023-05-10T05:44:56;101318.29;;;18.85;31.27
49801;BME280;35698;50.232;30.540;2023-05-10T05:46:00;101312.54;;;18.78;31.28
49801;BME280;35698;50.232;30.540;2023-05-10T05:47:11;101308.72;;;18.93;31.44
49801;BME280;35698;50.232;30.540;2023-05-10T05:48:14;101305.77;;;18.85;31.28
49801;BME280;35698;50.232;30.540;2023-05-10T05:49:25;101306.66;;;18.97;30.98
49801;BME280;35698;50.232;30.540;2023-05-10T05:50:28;101302.23;;;18.85;30.89
49801;BME280;35698;50.232;30.540;2023-05-10T05:51:40;101312.64;;;19.01;30.56
49801;BME280;35698;50.232;30.540;2023-05-10T05:52:43;101305.06;;;18.94;30.22
49801;BME280;35698;50.232;30.540;2023-05-10T05:53:57;101309.23;;;19.10;29.91
49801;BME280;35698;50.232;30.540;2023-05-10T05:55:05;101309.84;;;19.02;29.95
49801;BME280;35698;50.232;30.540;2023-05-10T05:56:30;101305.70;;;19.09;30.52
49801;BME280;35698;50.232;30.540;2023-05-10T05:57:41;101312.45;;;19.26;30.34
49801;BME280;35698;50.232;30.540;2023-05-10T05:58:45;101316.18;;;19.12;29.75
49801;BME280;35698;50.232;30.540;2023-05-10T05:59:56;101309.04;;;19.24;29.65
49801;BME280;35698;50.232;30.540;2023-05-10T06:00:59;101307.17;;;19.13;29.96
49801;BME280;35698;50.232;30.540;2023-05-10T06:02:02;101310.48;;;19.17;30.44
49801;BME280;35698;50.232;30.540;2023-05-10T06:03:14;101310.27;;;19.31;30.12
49801;BME280;35698;50.232;30.540;2023-05-10T06:04:17;101310.39;;;19.29;29.81
49801;BME280;35698;50.232;30.540;2023-05-10T06:05:29;101307.59;;;19.31;29.54
49801;BME280;35698;50.232;30.540;2023-05-10T06:07:06;101305.18;;;19.39;29.40
49801;BME280;35698;50.232;30.540;2023-05-10T06:08:34;101299.82;;;19.39;29.44
49801;BME280;35698;50.232;30.540;2023-05-10T06:09:40;101301.03;;;19.35;29.04
49801;BME280;35698;50.232;30.540;2023-05-10T06:11:05;101305.66;;;19.33;29.18
49801;BME280;35698;50.232;30.540;2023-05-10T06:12:08;101308.09;;;19.36;29.71
49801;BME280;35698;50.232;30.540;2023-05-10T06:13:21;101305.61;;;19.57;29.78
49801;BME280;35698;50.232;30.540;2023-05-10T06:14:24;101304.47;;;19.48;29.87
49801;BME280;35698;50.232;30.540;2023-05-10T06:15:27;101306.34;;;19.59;29.80
49801;BME280;35698;50.232;30.540;2023-05-10T06:16:40;101298.44;;;19.69;29.74
49801;BME280;35698;50.232;30.540;2023-05-10T06:17:52;101308.69;;;19.75;29.64
49801;BME280;35698;50.232;30.540;2023-05-10T06:18:55;101305.63;;;19.68;29.67
49801;BME280;35698;50.232;30.540;2023-05-10T06:20:07;101304.42;;;19.83;29.45
49801;BME280;35698;50.232;30.540;2023-05-10T06:21:11;101304.55;;;19.82;29.42
49801;BME280;35698;50.232;30.540;2023-05-10T06:22:23;101302.11;;;19.90;29.10
49801;BME280;35698;50.232;30.540;2023-05-10T06:23:35;101297.93;;;19.97;29.31
49801;BME280;35698;50.232;30.540;2023-05-10T06:24:38;101306.22;;;19.94;29.52
49801;BME280;35698;50.232;30.540;2023-05-10T06:25:47;101307.80;;;19.96;29.24
49801;BME280;35698;50.232;30.540;2023-05-10T06:26:58;101298.16;;;20.16;29.56
49801;BME280;35698;50.232;30.540;2023-05-10T06:28:01;101304.02;;;20.21;29.40
49801;BME280;35698;50.232;30.540;2023-05-10T06:29:04;101298.77;;;20.20;29.27
49801;BME280;35698;50.232;30.540;2023-05-10T06:30:16;101299.61;;;20.32;28.84
49801;BME280;35698;50.232;30.540;2023-05-10T06:31:20;101296.94;;;20.20;29.11
49801;BME280;35698;50.232;30.540;2023-05-10T06:32:31;101301.58;;;20.41;29.31
49801;BME280;35698;50.232;30.540;2023-05-10T06:33:34;101302.17;;;20.33;28.85
49801;BME280;35698;50.232;30.540;2023-05-10T06:34:46;101309.25;;;20.45;28.41
49801;BME280;35698;50.232;30.540;2023-05-10T06:35:49;101302.55;;;20.40;28.77
49801;BME280;35698;50.232;30.540;2023-05-10T06:37:01;101305.19;;;20.62;28.87
49801;BME280;35698;50.232;30.540;2023-05-10T06:38:12;101304.68;;;20.68;29.16
49801;BME280;35698;50.232;30.540;2023-05-10T06:39:15;101305.06;;;20.64;29.31
49801;BME280;35698;50.232;30.540;2023-05-10T06:40:18;101304.94;;;20.65;29.13
49801;BME280;35698;50.232;30.540;2023-05-10T06:41:25;101308.94;;;20.71;29.26
49801;BME280;35698;50.232;30.540;2023-05-10T06:42:36;101302.27;;;20.86;28.87
49801;BME280;35698;50.232;30.540;2023-05-10T06:43:40;101304.64;;;20.79;28.76
49801;BME280;35698;50.232;30.540;2023-05-10T06:44:53;101310.41;;;20.95;29.01
49801;BME280;35698;50.232;30.540;2023-05-10T06:45:57;101308.36;;;20.88;29.00
49801;BME280;35698;50.232;30.540;2023-05-10T06:47:00;101306.61;;;20.98;28.86
49801;BME280;35698;50.232;30.540;2023-05-10T06:48:03;101307.55;;;21.08;28.44
49801;BME280;35698;50.232;30.540;2023-05-10T06:49:16;101306.02;;;21.26;28.24
49801;BME280;35698;50.232;30.540;2023-05-10T06:50:20;101309.95;;;21.22;28.52
49801;BME280;35698;50.232;30.540;2023-05-10T06:51:31;101315.20;;;21.45;28.38
49801;BME280;35698;50.232;30.540;2023-05-10T06:52:34;101307.39;;;21.42;28.36
49801;BME280;35698;50.232;30.540;2023-05-10T06:53:38;101310.14;;;21.51;28.43
49801;BME280;35698;50.232;30.540;2023-05-10T06:54:41;101306.66;;;21.61;27.65
49801;BME280;35698;50.232;30.540;2023-05-10T06:55:54;101304.05;;;21.80;27.45
49801;BME280;35698;50.232;30.540;2023-05-10T06:56:57;101312.89;;;21.61;27.18
49801;BME280;35698;50.232;30.540;2023-05-10T06:58:17;101304.13;;;21.69;27.88
49801;BME280;35698;50.232;30.540;2023-05-10T06:59:20;101302.28;;;21.39;27.03
49801;BME280;35698;50.232;30.540;2023-05-10T07:00:41;101301.69;;;21.35;27.49
49801;BME280;35698;50.232;30.540;2023-05-10T07:01:53;101306.61;;;20.98;26.90
49801;BME280;35698;50.232;30.540;2023-05-10T07:02:56;101304.39;;;21.03;27.36
49801;BME280;35698;50.232;30.540;2023-05-10T07:04:17;101297.98;;;21.15;27.31
49801;BME280;35698;50.232;30.540;2023-05-10T07:05:28;101302.04;;;21.10;27.07
49801;BME280;35698;50.232;30.540;2023-05-10T07:06:32;101292.33;;;20.98;27.50
49801;BME280;35698;50.232;30.540;2023-05-10T07:07:53;101293.44;;;20.95;28.22
49801;BME280;35698;50.232;30.540;2023-05-10T07:09:06;101304.05;;;21.29;28.51
49801;BME280;35698;50.232;30.540;2023-05-10T07:10:10;101303.79;;;21.32;28.10
49801;BME280;35698;50.232;30.540;2023-05-10T07:11:32;101300.31;;;21.41;27.82
49801;BME280;35698;50.232;30.540;2023-05-10T07:12:52;101301.87;;;21.64;27.02
49801;BME280;35698;50.232;30.540;2023-05-10T07:13:55;101306.20;;;21.55;26.73
49801;BME280;35698;50.232;30.540;2023-05-10T07:15:17;101298.20;;;21.65;26.87
49801;BME280;35698;50.232;30.540;2023-05-10T07:16:21;101292.52;;;21.68;26.76
49801;BME280;35698;50.232;30.540;2023-05-10T07:17:24;101296.38;;;21.75;26.87
49801;BME280;35698;50.232;30.540;2023-05-10T07:18:41;101301.53;;;21.88;26.46
49801;BME280;35698;50.232;30.540;2023-05-10T07:19:45;101302.07;;;21.82;27.05
49801;BME280;35698;50.232;30.540;2023-05-10T07:21:26;101299.56;;;21.90;26.64
49801;BME280;35698;50.232;30.540;2023-05-10T07:23:04;101306.91;;;21.88;26.27
49801;BME280;35698;50.232;30.540;2023-05-10T07:24:32;101306.05;;;22.08;25.65
49801;BME280;35698;50.232;30.540;2023-05-10T07:25:48;101301.58;;;21.98;25.75
49801;BME280;35698;50.232;30.540;2023-05-10T07:27:14;101303.82;;;21.92;25.71
49801;BME280;35698;50.232;30.540;2023-05-10T07:39:37;101295.80;;;22.42;25.18